createdAt,value
2022-10-11T00:00:26.609Z,101100.08
2022-10-11T00:01:31.052Z,101108.02
2022-10-11T00:02:35.467Z,101103.11
2022-10-11T00:03:39.706Z,101100.78
2022-10-11T00:04:43.922Z,101101.83
2022-10-11T00:05:48.162Z,101108.72
2022-10-11T00:06:52.371Z,101108.59
2022-10-11T00:07:56.633Z,101113.54
2022-10-11T00:09:00.851Z,101116.22
2022-10-11T00:10:05.094Z,101114.18
2022-10-11T00:11:09.342Z,101117.69
2022-10-11T00:12:13.569Z,101111.73
2022-10-11T00:13:17.814Z,101110.23
2022-10-11T00:14:22.045Z,101114.82
2022-10-11T00:15:26.323Z,101115.23
2022-10-11T00:16:30.529Z,101114.82
2022-10-11T00:17:34.821Z,101124.95
2022-10-11T00:18:39.054Z,101129.73
2022-10-11T00:19:43.310Z,101126.93
2022-10-11T00:20:47.539Z,101125.66
2022-10-11T00:21:51.795Z,101123.72
2022-10-11T00:22:56.021Z,101122.28
2022-10-11T00:24:00.243Z,101115.58
2022-10-11T00:25:04.455Z,101123.2
2022-10-11T00:26:09.842Z,101126.74
2022-10-11T00:27:14.278Z,101130.31
2022-10-11T00:28:18.670Z,101126.23
2022-10-11T00:29:23.054Z,101132.52
2022-10-11T00:30:27.286Z,101131.59
2022-10-11T00:31:36.456Z,101138.28
2022-10-11T00:32:41.701Z,101138.98
2022-10-11T00:33:45.971Z,101137.11
2022-10-11T00:34:50.189Z,101141.38
2022-10-11T00:35:54.425Z,101141.38
2022-10-11T00:36:58.634Z,101138.34
2022-10-11T00:38:02.971Z,101151.61
2022-10-11T00:39:07.203Z,101152.31
2022-10-11T00:40:11.455Z,101148.87
2022-10-11T00:41:15.710Z,101164.78
2022-10-11T00:42:19.957Z,101163.95
2022-10-11T00:43:24.588Z,101164.3
2022-10-11T00:44:28.837Z,101166.05
2022-10-11T00:45:33.063Z,101168.67
2022-10-11T00:46:37.283Z,101168.67
2022-10-11T00:47:41.550Z,101168.1
2022-10-11T00:48:48.081Z,101161.98
2022-10-11T00:49:52.311Z,101157.89
2022-10-11T00:50:56.540Z,101161.27
2022-10-11T00:52:00.845Z,101160.86
2022-10-11T00:53:05.090Z,101162.61
2022-10-11T00:54:09.342Z,101157.13
2022-10-11T00:55:13.562Z,101159.08
2022-10-11T00:56:17.805Z,101174.8
2022-10-11T00:57:22.043Z,101171.35
2022-10-11T00:58:26.278Z,101169.53
2022-10-11T00:59:30.512Z,101169.02
2022-10-11T01:00:34.712Z,101180.66
2022-10-11T01:01:39.103Z,101177.63
2022-10-11T01:02:43.460Z,101181.48
2022-10-11T01:03:47.737Z,101180.66
2022-10-11T01:05:28.474Z,101187.2
2022-10-11T01:06:33.816Z,101186.59
2022-10-11T01:07:38.032Z,101181.88
2022-10-11T01:08:42.239Z,101184.67
2022-10-11T01:09:46.470Z,101184.67
2022-10-11T01:10:53.217Z,101188.63
2022-10-11T01:11:57.430Z,101188.53
2022-10-11T01:13:01.659Z,101177.98
2022-10-11T01:14:05.858Z,101183.34
2022-10-11T01:15:10.069Z,101187.3
2022-10-11T01:16:14.290Z,101187.77
2022-10-11T01:17:18.525Z,101192.84
2022-10-11T01:18:22.749Z,101193.42
2022-10-11T01:19:27.025Z,101184.97
2022-10-11T01:20:31.239Z,101191.38
2022-10-11T01:21:35.449Z,101189.81
2022-10-11T01:22:39.652Z,101187.2
2022-10-11T01:23:43.884Z,101190.45
2022-10-11T01:24:48.090Z,101185.95
2022-10-11T01:25:52.322Z,101186.14
2022-10-11T01:26:56.608Z,101183.28
2022-10-11T01:28:00.846Z,101183.63
2022-10-11T01:29:05.040Z,101184.74
2022-10-11T01:30:09.241Z,101183.12
2022-10-11T01:31:13.456Z,101187.36
2022-10-11T01:32:17.689Z,101186.78
2022-10-11T01:33:21.920Z,101183.12
2022-10-11T01:34:26.147Z,101183.34
2022-10-11T01:35:30.370Z,101188.83
2022-10-11T01:36:34.644Z,101181.59
2022-10-11T01:37:38.925Z,101185.38
2022-10-11T01:38:43.293Z,101185.25
2022-10-11T01:39:47.601Z,101181.36
2022-10-11T01:40:51.930Z,101189.75
2022-10-11T01:41:56.156Z,101192.02
2022-10-11T01:43:00.530Z,101197.15
2022-10-11T01:44:04.821Z,101203.84
2022-10-11T01:45:09.200Z,101199.92
2022-10-11T01:46:13.432Z,101201.86
2022-10-11T01:47:17.699Z,101209.07
2022-10-11T01:48:21.917Z,101211.94
2022-10-11T01:49:26.169Z,101209.42
2022-10-11T01:50:30.381Z,101209.9
2022-10-11T01:51:34.650Z,101206.45
2022-10-11T01:52:38.886Z,101209.3
2022-10-11T01:53:43.130Z,101211.46
2022-10-11T01:55:10.420Z,101216.25
2022-10-11T01:56:14.769Z,101217.87
2022-10-11T01:57:19.002Z,101218.16
2022-10-11T01:58:23.237Z,101213.22
2022-10-11T01:59:27.469Z,101218.73
2022-10-11T02:00:31.815Z,101226.06
2022-10-11T02:01:36.251Z,101225.62
2022-10-11T02:02:40.693Z,101225.71
2022-10-11T02:03:44.940Z,101230.72
2022-10-11T02:04:49.149Z,101227.24
2022-10-11T02:05:53.417Z,101228.52
2022-10-11T02:06:57.649Z,101232.53
2022-10-11T02:08:01.900Z,101237.7
2022-10-11T02:09:09.167Z,101241.49
2022-10-11T02:10:13.390Z,101241.14
2022-10-11T02:11:17.606Z,101241.55
2022-10-11T02:12:21.862Z,101239.64
2022-10-11T02:13:26.081Z,101240.5
2022-10-11T02:14:30.315Z,101234.52
2022-10-11T02:15:34.565Z,101239.64
2022-10-11T02:16:38.767Z,101235.72
2022-10-11T02:17:43.059Z,101239.39
2022-10-11T02:18:47.276Z,101241.97
2022-10-11T02:19:51.513Z,101234.86
2022-10-11T02:20:55.768Z,101240.5
2022-10-11T02:22:00.051Z,101242.06
2022-10-11T02:23:04.260Z,101239.09
2022-10-11T02:24:08.481Z,101244.94
2022-10-11T02:25:12.877Z,101243.05
2022-10-11T02:26:17.098Z,101246.91
2022-10-11T02:27:21.375Z,101249.02
2022-10-11T02:28:25.824Z,101245
2022-10-11T02:29:30.151Z,101247.27
2022-10-11T02:30:34.368Z,101252.27
2022-10-11T02:31:38.607Z,101255.65
2022-10-11T02:32:42.941Z,101256.92
2022-10-11T02:33:47.186Z,101256.34
2022-10-11T02:34:51.394Z,101258.2
2022-10-11T02:35:55.664Z,101261.8
2022-10-11T02:36:59.962Z,101258.26
2022-10-11T02:38:04.196Z,101256.63
2022-10-11T02:39:08.439Z,101255.52
2022-10-11T02:40:12.673Z,101259.12
2022-10-11T02:41:16.925Z,101264.31
2022-10-11T02:42:21.171Z,101260.72
2022-10-11T02:43:25.368Z,101262.21
2022-10-11T02:44:30.599Z,101265.46
2022-10-11T02:45:34.860Z,101257.97
2022-10-11T02:46:39.094Z,101263.91
2022-10-11T02:47:43.321Z,101266.01
2022-10-11T02:48:47.549Z,101262.5
2022-10-11T02:49:51.797Z,101260.45
2022-10-11T02:50:56.227Z,101267.22
2022-10-11T02:52:00.474Z,101275.6
2022-10-11T02:53:04.822Z,101265.81
2022-10-11T02:54:09.059Z,101268.91
2022-10-11T02:55:13.299Z,101264.89
2022-10-11T02:56:17.587Z,101262.56
2022-10-11T02:57:21.806Z,101276.78
2022-10-11T02:58:26.043Z,101270.66
2022-10-11T02:59:30.275Z,101277.36
2022-10-11T03:00:34.495Z,101280.25
2022-10-11T03:01:38.934Z,101287.23
2022-10-11T03:02:43.318Z,101280.19
2022-10-11T03:03:47.548Z,101279.68
2022-10-11T03:04:51.790Z,101286.44
2022-10-11T03:05:56.010Z,101282.07
2022-10-11T03:07:00.272Z,101286.09
2022-10-11T03:08:04.551Z,101281.72
2022-10-11T03:09:08.775Z,101283.5
2022-10-11T03:10:12.991Z,101284.97
2022-10-11T03:11:17.258Z,101289.91
2022-10-11T03:12:21.536Z,101291.95
2022-10-11T03:13:25.891Z,101291.8
2022-10-11T03:14:30.131Z,101288.92
2022-10-11T03:15:34.380Z,101291.44
2022-10-11T03:16:38.614Z,101298.3
2022-10-11T03:17:42.872Z,101297.47
2022-10-11T03:18:47.099Z,101299.7
2022-10-11T03:19:51.355Z,101292.52
2022-10-11T03:20:55.564Z,101301.39
2022-10-11T03:21:59.778Z,101304.92
2022-10-11T03:23:04.023Z,101309.98
2022-10-11T03:24:08.254Z,101311.74
2022-10-11T03:25:12.476Z,101313.59
2022-10-11T03:26:16.696Z,101309.16
2022-10-11T03:27:20.937Z,101319.01
2022-10-11T03:28:25.298Z,101315.86
2022-10-11T03:29:29.880Z,101321.33
2022-10-11T03:30:34.135Z,101323.73
2022-10-11T03:31:38.342Z,101318.53
2022-10-11T03:32:42.600Z,101320.92
2022-10-11T03:33:46.807Z,101326.05
2022-10-11T03:34:51.044Z,101322.81
2022-10-11T03:35:55.251Z,101332.34
2022-10-11T03:36:59.508Z,101340.84
2022-10-11T03:38:03.780Z,101335.59
2022-10-11T03:39:08.002Z,101341.55
2022-10-11T03:40:12.227Z,101343.4
2022-10-11T03:41:16.463Z,101349.23
2022-10-11T03:42:20.685Z,101339.73
2022-10-11T03:43:24.945Z,101355.92
2022-10-11T03:44:29.201Z,101345.78
2022-10-11T03:45:33.457Z,101350.09
2022-10-11T03:46:37.714Z,101349.23
2022-10-11T03:47:41.965Z,101354.17
2022-10-11T03:48:46.176Z,101358.13
2022-10-11T03:49:50.414Z,101361.79
2022-10-11T03:50:54.632Z,101357.27
2022-10-11T03:51:58.865Z,101369.19
2022-10-11T03:53:03.101Z,101365.66
2022-10-11T03:54:07.377Z,101367.85
2022-10-11T03:55:11.631Z,101371.72
2022-10-11T03:56:16.752Z,101373.56
2022-10-11T03:57:21.006Z,101378.05
2022-10-11T03:58:25.247Z,101378.83
2022-10-11T03:59:29.483Z,101381.95
2022-10-11T04:00:33.768Z,101380.52
2022-10-11T04:01:38.203Z,101377.42
2022-10-11T04:02:42.513Z,101386.73
2022-10-11T04:03:46.758Z,101387.52
2022-10-11T04:04:51.021Z,101387.53
2022-10-11T04:05:55.328Z,101393
2022-10-11T04:06:59.577Z,101395.16
2022-10-11T04:08:11.881Z,101394.95
2022-10-11T04:09:16.342Z,101387.18
2022-10-11T04:10:20.566Z,101390.98
2022-10-11T04:11:24.788Z,101392.39
2022-10-11T04:12:29.043Z,101397.11
2022-10-11T04:13:33.292Z,101397.74
2022-10-11T04:14:37.502Z,101402.81
2022-10-11T04:15:41.719Z,101400.64
2022-10-11T04:16:45.964Z,101400.7
2022-10-11T04:17:50.178Z,101402.91
2022-10-11T04:18:54.419Z,101404.03
2022-10-11T04:19:58.672Z,101407.19
2022-10-11T04:21:02.932Z,101412.84
2022-10-11T04:22:07.152Z,101411.44
2022-10-11T04:23:11.386Z,101410.92
2022-10-11T04:24:15.635Z,101416.58
2022-10-11T04:25:19.876Z,101416.92
2022-10-11T04:26:24.095Z,101423.91
2022-10-11T04:27:28.375Z,101424.68
2022-10-11T04:28:32.731Z,101425.45
2022-10-11T04:29:37.048Z,101432.44
2022-10-11T04:30:41.282Z,101435.53
2022-10-11T04:31:45.510Z,101437.8
2022-10-11T04:32:49.734Z,101441.05
2022-10-11T04:33:53.954Z,101435.34
2022-10-11T04:34:58.165Z,101446.13
2022-10-11T04:36:03.322Z,101442.17
2022-10-11T04:37:08.229Z,101434.77
2022-10-11T04:38:12.448Z,101446.92
2022-10-11T04:39:16.694Z,101439.06
2022-10-11T04:40:20.927Z,101442.38
2022-10-11T04:41:25.129Z,101443.72
2022-10-11T04:42:29.360Z,101444.81
2022-10-11T04:43:33.598Z,101449.11
2022-10-11T04:44:37.907Z,101447.77
2022-10-11T04:45:42.106Z,101449.23
2022-10-11T04:46:46.379Z,101451.72
2022-10-11T04:47:50.604Z,101454.05
2022-10-11T04:48:54.814Z,101447.91
2022-10-11T04:49:59.022Z,101447.98
2022-10-11T04:51:03.239Z,101459.39
2022-10-11T04:52:07.491Z,101458.62
2022-10-11T04:53:11.722Z,101448.95
2022-10-11T04:54:15.956Z,101459.47
2022-10-11T04:55:20.209Z,101467.16
2022-10-11T04:56:24.426Z,101462.22
2022-10-11T04:57:28.622Z,101462.7
2022-10-11T04:58:32.881Z,101464.25
2022-10-11T04:59:37.101Z,101460.73
2022-10-11T05:00:41.354Z,101461.63
2022-10-11T05:01:45.692Z,101464.98
2022-10-11T05:02:50.321Z,101470.39
2022-10-11T05:03:54.616Z,101465.61
2022-10-11T05:04:58.834Z,101474.41
2022-10-11T05:06:07.037Z,101473.77
2022-10-11T05:07:12.097Z,101475.73
2022-10-11T05:08:16.353Z,101469.04
2022-10-11T05:09:20.592Z,101475.41
2022-10-11T05:10:24.843Z,101477.83
2022-10-11T05:11:29.082Z,101483.31
2022-10-11T05:12:33.404Z,101476.77
2022-10-11T05:13:37.635Z,101483.38
2022-10-11T05:14:41.863Z,101484.79
2022-10-11T05:15:46.108Z,101487.11
2022-10-11T05:16:50.360Z,101497.92
2022-10-11T05:17:54.577Z,101497.13
2022-10-11T05:18:58.845Z,101499.73
2022-10-11T05:20:03.098Z,101507.2
2022-10-11T05:21:07.315Z,101503.7
2022-10-11T05:22:11.513Z,101504.68
2022-10-11T05:23:15.747Z,101514.17
2022-10-11T05:24:20.159Z,101508.91
2022-10-11T05:25:24.431Z,101514.98
2022-10-11T05:26:28.669Z,101515.04
2022-10-11T05:27:32.926Z,101516.8
2022-10-11T05:28:37.299Z,101520.61
2022-10-11T05:29:41.689Z,101518.47
2022-10-11T05:30:45.982Z,101524.63
2022-10-11T05:31:50.201Z,101518.47
2022-10-11T05:32:54.424Z,101526.59
2022-10-11T05:33:58.683Z,101520.95
2022-10-11T05:35:02.954Z,101520.53
2022-10-11T05:36:08.241Z,101535.2
2022-10-11T05:37:13.256Z,101531.59
2022-10-11T05:38:17.471Z,101529.39
2022-10-11T05:39:21.711Z,101536.19
2022-10-11T05:40:25.966Z,101536.72
2022-10-11T05:41:30.201Z,101538.51
2022-10-11T05:42:34.427Z,101531.36
2022-10-11T05:43:38.624Z,101535.83
2022-10-11T05:44:42.839Z,101535.89
2022-10-11T05:45:47.114Z,101535.95
2022-10-11T05:46:51.324Z,101545.89
2022-10-11T05:47:55.547Z,101552.64
2022-10-11T05:48:59.804Z,101549.05
2022-10-11T05:50:06.735Z,101548.33
2022-10-11T05:51:10.992Z,101551.01
2022-10-11T05:52:15.264Z,101558.56
2022-10-11T05:53:19.477Z,101547.56
2022-10-11T05:54:23.954Z,101553.84
2022-10-11T05:55:28.177Z,101562.34
2022-10-11T05:56:32.992Z,101558.42
2022-10-11T05:57:37.190Z,101559.31
2022-10-11T05:58:41.449Z,101563.42
2022-10-11T05:59:45.684Z,101561.52
2022-10-11T06:00:50.038Z,101569.05
2022-10-11T06:01:54.619Z,101560.75
2022-10-11T06:02:58.939Z,101572.23
2022-10-11T06:04:03.156Z,101569.99
2022-10-11T06:05:07.493Z,101571.54
2022-10-11T06:06:12.085Z,101569.58
2022-10-11T06:07:16.312Z,101569.66
2022-10-11T06:08:20.681Z,101576.37
2022-10-11T06:09:24.910Z,101572.06
2022-10-11T06:10:29.245Z,101574.38
2022-10-11T06:11:33.490Z,101580.39
2022-10-11T06:12:37.737Z,101582.91
2022-10-11T06:13:41.957Z,101574.75
2022-10-11T06:14:46.187Z,101585.83
2022-10-11T06:15:50.426Z,101583.63
2022-10-11T06:16:54.665Z,101591.19
2022-10-11T06:17:58.924Z,101589.84
2022-10-11T06:19:03.193Z,101589.84
2022-10-11T06:20:07.435Z,101592.59
2022-10-11T06:21:11.727Z,101606.49
2022-10-11T06:22:15.917Z,101601.13
2022-10-11T06:23:20.154Z,101594.14
2022-10-11T06:24:24.473Z,101605.33
2022-10-11T06:25:28.701Z,101601.31
2022-10-11T06:26:33.226Z,101601.41
2022-10-11T06:27:37.437Z,101605.64
2022-10-11T06:28:41.841Z,101603.84
2022-10-11T06:29:46.372Z,101603.49
2022-10-11T06:30:50.852Z,101608.94
2022-10-11T06:31:55.142Z,101610.91
2022-10-11T06:33:05.426Z,101623.5
2022-10-11T06:34:09.646Z,101626.36
2022-10-11T06:35:13.847Z,101621.98
2022-10-11T06:36:18.591Z,101625.17
2022-10-11T06:37:23.461Z,101623.95
2022-10-11T06:38:27.701Z,101627.97
2022-10-11T06:39:31.944Z,101630.34
2022-10-11T06:40:36.200Z,101631.21
2022-10-11T06:41:40.438Z,101637.61
2022-10-11T06:42:44.642Z,101636.21
2022-10-11T06:43:49.019Z,101630.44
2022-10-11T06:44:53.221Z,101644.25
2022-10-11T06:45:57.435Z,101640.44
2022-10-11T06:47:01.700Z,101644.66
2022-10-11T06:48:05.943Z,101646.52
2022-10-11T06:49:10.220Z,101649.91
2022-10-11T06:50:14.439Z,101652.41
2022-10-11T06:51:18.659Z,101651.98
2022-10-11T06:52:25.933Z,101653.38
2022-10-11T06:53:30.573Z,101658.73
2022-10-11T06:54:34.795Z,101665.17
2022-10-11T06:55:39.012Z,101663.68
2022-10-11T06:56:43.275Z,101658.38
2022-10-11T06:57:47.664Z,101664.81
2022-10-11T06:58:51.904Z,101660.53
2022-10-11T06:59:56.154Z,101666.87
2022-10-11T07:01:00.587Z,101662.28
2022-10-11T07:02:04.947Z,101665.02
2022-10-11T07:03:09.278Z,101673.83
2022-10-11T07:04:13.519Z,101668
2022-10-11T07:05:17.747Z,101674.81
2022-10-11T07:06:21.977Z,101669.55
2022-10-11T07:07:26.183Z,101672.34
2022-10-11T07:08:30.450Z,101671.56
2022-10-11T07:09:34.673Z,101675.47
2022-10-11T07:10:38.931Z,101676.45
2022-10-11T07:11:43.163Z,101679.19
2022-10-11T07:12:47.394Z,101686.77
2022-10-11T07:13:51.642Z,101683.05
2022-10-11T07:14:55.960Z,101681.77
2022-10-11T07:16:00.213Z,101691.63
2022-10-11T07:17:04.448Z,101688.47
2022-10-11T07:18:08.667Z,101688.52
2022-10-11T07:19:12.909Z,101693.41
2022-10-11T07:20:17.135Z,101693.52
2022-10-11T07:21:21.347Z,101695.28
2022-10-11T07:22:25.575Z,101693.16
2022-10-11T07:23:29.862Z,101704.38
2022-10-11T07:24:34.099Z,101699.65
2022-10-11T07:25:38.546Z,101705.42
2022-10-11T07:26:42.819Z,101703.42
2022-10-11T07:27:47.080Z,101701.16
2022-10-11T07:28:51.599Z,101706.05
2022-10-11T07:29:56.012Z,101698.48
2022-10-11T07:31:00.322Z,101711.72
2022-10-11T07:32:04.729Z,101709.84
2022-10-11T07:33:09.022Z,101703.06
2022-10-11T07:34:13.300Z,101713.56
2022-10-11T07:35:17.540Z,101712.53
2022-10-11T07:36:21.779Z,101707.34
2022-10-11T07:37:26.619Z,101716.92
2022-10-11T07:38:30.936Z,101711
2022-10-11T07:39:35.199Z,101719.59
2022-10-11T07:40:39.455Z,101724.89
2022-10-11T07:41:46.982Z,101723.3
2022-10-11T07:42:51.214Z,101730.82
2022-10-11T07:43:55.475Z,101725.41
2022-10-11T07:44:59.738Z,101727.58
2022-10-11T07:46:05.258Z,101728.75
2022-10-11T07:47:12.472Z,101736.22
2022-10-11T07:48:16.776Z,101733.48
2022-10-11T07:49:21.263Z,101734.67
2022-10-11T07:50:25.592Z,101721.95
2022-10-11T07:51:29.829Z,101742.7
2022-10-11T07:52:35.085Z,101730.08
2022-10-11T07:53:39.319Z,101731.83
2022-10-11T07:54:43.540Z,101736.57
2022-10-11T07:55:47.906Z,101736.57
2022-10-11T07:56:52.125Z,101746.25
2022-10-11T07:57:56.434Z,101750.27
2022-10-11T07:59:00.776Z,101753.78
2022-10-11T08:00:04.997Z,101745.74
2022-10-11T08:01:09.425Z,101756.4
2022-10-11T08:02:13.840Z,101755
2022-10-11T08:03:18.054Z,101754.64
2022-10-11T08:04:22.300Z,101758.16
2022-10-11T08:05:26.559Z,101757.23
2022-10-11T08:06:31.671Z,101760.06
2022-10-11T08:07:36.536Z,101764.08
2022-10-11T08:08:41.502Z,101758.3
2022-10-11T08:09:45.911Z,101763.09
2022-10-11T08:10:50.308Z,101763.45
2022-10-11T08:11:54.711Z,101763.88
2022-10-11T08:13:05.095Z,101764.02
2022-10-11T08:14:09.565Z,101764.49
2022-10-11T08:15:13.965Z,101766.81
2022-10-11T08:16:18.386Z,101768.03
2022-10-11T08:17:22.798Z,101764.22
2022-10-11T08:18:27.105Z,101768.3
2022-10-11T08:19:31.483Z,101764.9
2022-10-11T08:20:35.719Z,101767.08
2022-10-11T08:21:39.966Z,101768.86
2022-10-11T08:22:44.289Z,101763.56
2022-10-11T08:23:48.514Z,101766.8
2022-10-11T08:24:52.748Z,101771.66
2022-10-11T08:25:57.218Z,101765.87
2022-10-11T08:27:01.433Z,101766.59
2022-10-11T08:28:05.887Z,101766.35
2022-10-11T08:29:10.151Z,101764.75
2022-10-11T08:30:14.402Z,101770
2022-10-11T08:31:18.682Z,101767.67
2022-10-11T08:32:22.941Z,101767.23
2022-10-11T08:33:27.187Z,101766.23
2022-10-11T08:34:31.422Z,101769.9
2022-10-11T08:35:35.670Z,101771.3
2022-10-11T08:36:39.959Z,101772.83
2022-10-11T08:37:44.193Z,101775.09
2022-10-11T08:38:48.408Z,101767.84
2022-10-11T08:39:52.643Z,101774.03
2022-10-11T08:40:57.126Z,101769.53
2022-10-11T08:42:01.402Z,101772.16
2022-10-11T08:43:05.614Z,101769.9
2022-10-11T08:44:09.866Z,101767.33
2022-10-11T08:45:14.131Z,101774.59
2022-10-11T08:46:18.359Z,101770.99
2022-10-11T08:47:22.652Z,101770.88
2022-10-11T08:48:26.857Z,101769.29
2022-10-11T08:49:31.090Z,101774.59
2022-10-11T08:50:35.313Z,101772.78
2022-10-11T08:51:39.567Z,101777.78
2022-10-11T08:52:43.810Z,101777.98
2022-10-11T08:53:48.076Z,101778.41
2022-10-11T08:54:53.350Z,101774.23
2022-10-11T08:55:57.607Z,101780.31
2022-10-11T08:57:01.868Z,101776.34
2022-10-11T08:58:06.132Z,101777.83
2022-10-11T08:59:10.361Z,101778.25
2022-10-11T09:00:14.673Z,101775.36
2022-10-11T09:01:19.081Z,101778.67
2022-10-11T09:02:23.398Z,101784.47
2022-10-11T09:03:27.633Z,101779.53
2022-10-11T09:04:31.860Z,101781.84
2022-10-11T09:05:36.097Z,101776.44
2022-10-11T09:06:40.333Z,101781.44
2022-10-11T09:07:44.548Z,101779.59
2022-10-11T09:08:48.909Z,101776.08
2022-10-11T09:09:53.163Z,101779.73
2022-10-11T09:10:57.378Z,101777.59
2022-10-11T09:12:01.629Z,101781.48
2022-10-11T09:13:05.848Z,101783.81
2022-10-11T09:14:10.072Z,101780.2
2022-10-11T09:15:14.294Z,101784.28
2022-10-11T09:16:18.537Z,101783.5
2022-10-11T09:17:22.772Z,101779.02
2022-10-11T09:18:27.015Z,101784.01
2022-10-11T09:19:31.468Z,101779.91
2022-10-11T09:20:35.703Z,101783.45
2022-10-11T09:21:39.966Z,101789.01
2022-10-11T09:22:44.195Z,101780.61
2022-10-11T09:23:48.403Z,101785.83
2022-10-11T09:24:52.648Z,101781.03
2022-10-11T09:25:56.924Z,101781.45
2022-10-11T09:27:01.148Z,101785.87
2022-10-11T09:28:05.408Z,101784.18
2022-10-11T09:29:09.983Z,101790.82
2022-10-11T09:30:14.430Z,101792.58
2022-10-11T09:31:18.779Z,101782.57
2022-10-11T09:32:22.996Z,101788.12
2022-10-11T09:33:27.224Z,101788.38
2022-10-11T09:34:31.496Z,101782.98
2022-10-11T09:35:35.796Z,101790.88
2022-10-11T09:36:40.307Z,101792.3
2022-10-11T09:37:44.526Z,101790.45
2022-10-11T09:38:48.760Z,101783.7
2022-10-11T09:39:53.016Z,101789.14
2022-10-11T09:40:57.259Z,101781.16
2022-10-11T09:42:01.519Z,101780.91
2022-10-11T09:43:05.747Z,101781.28
2022-10-11T09:44:09.984Z,101776.17
2022-10-11T09:45:14.240Z,101784.35
2022-10-11T09:46:18.482Z,101786.11
2022-10-11T09:47:22.710Z,101779.5
2022-10-11T09:48:26.948Z,101779.97
2022-10-11T09:49:31.208Z,101773.42
2022-10-11T09:50:35.573Z,101775.84
2022-10-11T09:51:39.839Z,101781.09
2022-10-11T09:52:44.074Z,101773.23
2022-10-11T09:53:48.326Z,101767.6
2022-10-11T09:54:52.565Z,101777.33
2022-10-11T09:55:56.818Z,101768.58
2022-10-11T09:57:01.074Z,101784.97
2022-10-11T09:58:05.320Z,101781.25
2022-10-11T09:59:09.545Z,101778.23
2022-10-11T10:00:13.783Z,101778.64
2022-10-11T10:01:18.126Z,101774.41
2022-10-11T10:02:22.583Z,101776.77
2022-10-11T10:03:26.815Z,101784.75
2022-10-11T10:04:31.493Z,101774.2
2022-10-11T10:05:35.780Z,101776.47
2022-10-11T10:06:43.033Z,101779.81
2022-10-11T10:07:47.384Z,101774.45
2022-10-11T10:08:51.662Z,101773.57
2022-10-11T10:09:55.896Z,101781.85
2022-10-11T10:11:00.787Z,101780.02
2022-10-11T10:12:05.028Z,101780.16
2022-10-11T10:13:09.372Z,101782.47
2022-10-11T10:14:13.654Z,101778
2022-10-11T10:15:18.070Z,101782.1
2022-10-11T10:16:22.469Z,101788.12
2022-10-11T10:17:26.707Z,101779.42
2022-10-11T10:18:30.930Z,101782.24
2022-10-11T10:19:35.188Z,101786.06
2022-10-11T10:20:43.206Z,101783.02
2022-10-11T10:21:47.419Z,101778.59
2022-10-11T10:22:51.752Z,101781.69
2022-10-11T10:23:55.964Z,101786.56
2022-10-11T10:25:00.285Z,101786.48
2022-10-11T10:26:05.379Z,101796.04
2022-10-11T10:27:10.385Z,101784.14
2022-10-11T10:28:14.782Z,101786.31
2022-10-11T10:29:19.110Z,101794.39
2022-10-11T10:30:23.344Z,101789.55
2022-10-11T10:31:27.649Z,101790.38
2022-10-11T10:32:31.908Z,101784.05
2022-10-11T10:33:36.118Z,101796.09
2022-10-11T10:34:40.442Z,101798.41
2022-10-11T10:35:44.663Z,101793.98
2022-10-11T10:36:48.958Z,101788.63
2022-10-11T10:37:53.200Z,101789.85
2022-10-11T10:38:57.521Z,101796.29
2022-10-11T10:40:01.825Z,101793
2022-10-11T10:41:06.062Z,101789.63
2022-10-11T10:42:10.333Z,101794.95
2022-10-11T10:43:14.621Z,101794.5
2022-10-11T10:44:18.954Z,101794.14
2022-10-11T10:45:23.182Z,101808.19
2022-10-11T10:46:27.416Z,101791.72
2022-10-11T10:47:31.667Z,101794.8
2022-10-11T10:49:41.458Z,101798.34
2022-10-11T10:50:57.423Z,101793.61
2022-10-11T10:52:01.694Z,101797.53
2022-10-11T10:53:05.936Z,101801.1
2022-10-11T10:54:10.185Z,101803.41
2022-10-11T10:55:14.414Z,101802.49
2022-10-11T10:56:18.684Z,101793.13
2022-10-11T10:57:22.932Z,101800.38
2022-10-11T10:58:27.318Z,101804.8
2022-10-11T10:59:31.598Z,101795.64
2022-10-11T11:00:35.855Z,101800.02
2022-10-11T11:01:40.230Z,101799.41
2022-10-11T11:02:44.756Z,101793.6
2022-10-11T11:03:49.504Z,101792.27
2022-10-11T11:04:53.877Z,101794.33
2022-10-11T11:05:58.200Z,101791.91
2022-10-11T11:07:02.446Z,101796.95
2022-10-11T11:08:06.710Z,101799.57
2022-10-11T11:09:10.956Z,101791.59
2022-10-11T11:10:15.262Z,101796.53
2022-10-11T11:11:19.530Z,101792.94
2022-10-11T11:12:23.742Z,101796.22
2022-10-11T11:13:28.007Z,101798.12
2022-10-11T11:14:32.307Z,101801.58
2022-10-11T11:15:39.120Z,101804.8
2022-10-11T11:16:43.319Z,101808.88
2022-10-11T11:17:47.570Z,101799.56
2022-10-11T11:18:51.854Z,101799.76
2022-10-11T11:19:56.314Z,101801.34
2022-10-11T11:21:00.541Z,101804.8
2022-10-11T11:22:04.775Z,101798.06
2022-10-11T11:23:09.001Z,101798.84
2022-10-11T11:24:13.215Z,101809.55
2022-10-11T11:25:17.511Z,101799.68
2022-10-11T11:26:21.846Z,101802.44
2022-10-11T11:27:26.082Z,101805.53
2022-10-11T11:28:30.478Z,101795.75
2022-10-11T11:29:34.807Z,101796.53
2022-10-11T11:30:39.105Z,101802.97
2022-10-11T11:31:43.317Z,101794.33
2022-10-11T11:32:47.530Z,101800.34
2022-10-11T11:33:51.742Z,101807.89
2022-10-11T11:34:55.947Z,101797.51
2022-10-11T11:36:00.167Z,101809.41
2022-10-11T11:37:04.665Z,101799.43
2022-10-11T11:38:08.944Z,101799.8
2022-10-11T11:39:13.195Z,101806.37
2022-10-11T11:40:17.465Z,101805.77
2022-10-11T11:41:21.681Z,101804.48
2022-10-11T11:42:25.958Z,101803.86
2022-10-11T11:43:30.212Z,101805.3
2022-10-11T11:44:34.475Z,101802.31
2022-10-11T11:45:39.753Z,101804.01
2022-10-11T11:46:44.027Z,101801.81
2022-10-11T11:47:48.264Z,101810.75
2022-10-11T11:48:52.567Z,101808.86
2022-10-11T11:49:56.826Z,101807.05
2022-10-11T11:51:01.092Z,101808.97
2022-10-11T11:52:05.784Z,101810.81
2022-10-11T11:53:10.070Z,101809.95
2022-10-11T11:54:14.288Z,101806.49
2022-10-11T11:55:18.538Z,101813.23
2022-10-11T11:56:22.762Z,101809.11
2022-10-11T11:57:27.007Z,101812.16
2022-10-11T11:58:31.229Z,101811.23
2022-10-11T11:59:35.475Z,101810.87
2022-10-11T12:00:39.734Z,101811.28
2022-10-11T12:01:44.140Z,101813.44
2022-10-11T12:02:48.531Z,101812.09
2022-10-11T12:03:52.762Z,101809.95
2022-10-11T12:04:57.009Z,101808.61
2022-10-11T12:06:01.285Z,101817.56
2022-10-11T12:07:17.833Z,101805.94
2022-10-11T12:08:23.140Z,101810.39
2022-10-11T12:09:27.352Z,101808.19
2022-10-11T12:10:31.601Z,101812.93
2022-10-11T12:11:36.600Z,101808.77
2022-10-11T12:12:41.861Z,101804.34
2022-10-11T12:13:46.087Z,101803.93
2022-10-11T12:14:50.383Z,101803.93
2022-10-11T12:15:54.649Z,101807.8
2022-10-11T12:16:58.929Z,101804.7
2022-10-11T12:18:03.127Z,101803.63
2022-10-11T12:19:07.363Z,101806.3